createdAt,value
2018-09-14T00:00:48.883Z,27.17
2018-09-14T00:03:19.856Z,29.90
2018-09-14T00:05:50.696Z,32.57
2018-09-14T00:08:21.618Z,33.90
2018-09-14T00:10:52.671Z,36.30
2018-09-14T00:13:23.661Z,34.90
2018-09-14T00:15:54.559Z,38.43
2018-09-14T00:18:25.625Z,38.27
2018-09-14T00:20:56.549Z,42.00
2018-09-14T00:23:27.317Z,41.03
2018-09-14T00:25:58.187Z,40.63
2018-09-14T00:28:28.863Z,42.73
2018-09-14T00:30:59.129Z,39.77
2018-09-14T00:33:31.402Z,40.43
2018-09-14T00:36:02.452Z,40.77
2018-09-14T00:38:33.231Z,43.10
2018-09-14T00:41:04.671Z,44.33
2018-09-14T00:43:35.557Z,43.30
2018-09-14T00:46:07.210Z,36.30
2018-09-14T00:48:38.016Z,39.50
2018-09-14T00:51:09.012Z,37.63
2018-09-14T00:53:40.775Z,40.60
2018-09-14T00:56:11.708Z,37.70
2018-09-14T00:58:42.460Z,38.63
2018-09-14T01:01:13.585Z,44.37
2018-09-14T01:03:44.587Z,42.53
2018-09-14T01:06:15.397Z,37.57
2018-09-14T01:08:47.114Z,42.50
2018-09-14T01:11:18.046Z,40.97
2018-09-14T01:13:49.078Z,47.17
2018-09-14T01:16:19.986Z,48.53
2018-09-14T01:18:50.706Z,39.47
2018-09-14T01:21:21.683Z,36.00
2018-09-14T01:23:52.573Z,42.77
2018-09-14T01:26:23.429Z,40.17
2018-09-14T01:28:54.396Z,48.50
2018-09-14T01:31:25.284Z,45.07
2018-09-14T01:33:56.063Z,48.03
2018-09-14T01:36:26.855Z,45.30
2018-09-14T01:38:57.601Z,40.17
2018-09-14T01:41:28.475Z,43.97
2018-09-14T01:43:59.443Z,40.90
2018-09-14T01:46:30.377Z,43.97
2018-09-14T01:49:01.717Z,45.20
2018-09-14T01:51:32.594Z,45.37
2018-09-14T01:54:03.484Z,42.20
2018-09-14T01:56:34.595Z,40.80
2018-09-14T01:59:05.763Z,44.10
2018-09-14T02:01:36.677Z,38.80
2018-09-14T02:04:07.973Z,42.53
2018-09-14T02:06:38.925Z,44.87
2018-09-14T02:09:10.993Z,45.17
2018-09-14T02:11:41.913Z,56.77
2018-09-14T02:14:12.707Z,47.63
2018-09-14T02:16:43.541Z,52.20
2018-09-14T02:19:14.243Z,51.67
2018-09-14T02:21:45.213Z,48.47
2018-09-14T02:24:16.049Z,49.70
2018-09-14T02:26:47.069Z,49.73
2018-09-14T02:29:18.139Z,48.80
2018-09-14T02:31:49.841Z,51.10
2018-09-14T02:34:20.769Z,45.77
2018-09-14T02:36:51.991Z,46.47
2018-09-14T02:39:22.979Z,47.17
2018-09-14T02:41:53.899Z,50.47
2018-09-14T02:44:24.769Z,45.10
2018-09-14T02:46:55.759Z,49.80
2018-09-14T02:49:26.592Z,50.37
2018-09-14T02:51:57.509Z,52.23
2018-09-14T02:54:28.807Z,42.87
2018-09-14T02:56:59.746Z,46.27
2018-09-14T02:59:30.694Z,47.47
2018-09-14T03:02:00.894Z,43.83
2018-09-14T03:04:31.691Z,46.53
2018-09-14T03:07:02.615Z,47.97
2018-09-14T03:09:33.456Z,55.03
2018-09-14T03:12:04.309Z,45.27
2018-09-14T03:14:35.270Z,45.40
2018-09-14T03:17:06.583Z,45.90
2018-09-14T03:19:37.635Z,47.03
2018-09-14T03:22:08.490Z,44.57
2018-09-14T03:24:39.524Z,51.60
2018-09-14T03:27:10.434Z,48.93
2018-09-14T03:29:42.837Z,47.93
2018-09-14T03:32:13.821Z,50.13
2018-09-14T03:34:45.170Z,49.00
2018-09-14T03:37:16.050Z,53.07
2018-09-14T03:39:46.875Z,58.30
2018-09-14T03:42:17.795Z,52.40
2018-09-14T03:44:48.929Z,54.73
2018-09-14T03:47:19.759Z,58.00
2018-09-14T03:49:50.474Z,60.97
2018-09-14T03:52:21.573Z,66.93
2018-09-14T03:54:52.379Z,62.37
2018-09-14T03:57:23.323Z,66.53
2018-09-14T03:59:54.363Z,67.40
2018-09-14T04:02:24.837Z,62.50
2018-09-14T04:04:55.219Z,61.73
2018-09-14T04:07:26.100Z,52.63
2018-09-14T04:09:56.958Z,66.33
2018-09-14T04:12:27.125Z,64.33
2018-09-14T04:14:57.533Z,61.80
2018-09-14T04:17:28.597Z,60.37
2018-09-14T04:19:59.790Z,60.90
2018-09-14T04:22:30.060Z,65.93
2018-09-14T04:25:00.365Z,52.57
2018-09-14T04:27:31.298Z,58.67
2018-09-14T04:30:02.188Z,54.63
2018-09-14T04:32:32.263Z,60.20
2018-09-14T04:35:02.565Z,55.30
2018-09-14T04:37:33.622Z,60.33
2018-09-14T04:40:05.380Z,60.73
2018-09-14T04:42:35.915Z,68.23
2018-09-14T04:45:06.149Z,59.53
2018-09-14T04:47:37.624Z,68.47
2018-09-14T04:50:08.838Z,72.90
2018-09-14T04:52:39.119Z,85.93
2018-09-14T04:55:09.666Z,85.70
2018-09-14T04:57:40.877Z,78.93
2018-09-14T05:00:12.026Z,90.17
2018-09-14T05:02:42.323Z,87.50
2018-09-14T05:05:13.905Z,81.37
2018-09-14T05:07:45.131Z,63.83
2018-09-14T05:10:14.849Z,54.33
2018-09-14T05:12:45.186Z,65.10
2018-09-14T05:15:15.567Z,64.27
2018-09-14T05:17:46.705Z,65.13
2018-09-14T05:20:16.997Z,60.33
2018-09-14T05:22:48.630Z,75.83
2018-09-14T05:25:19.592Z,53.37
2018-09-14T05:27:50.656Z,58.73
2018-09-14T05:30:20.929Z,62.47
2018-09-14T05:32:51.284Z,53.67
2018-09-14T05:35:22.786Z,58.80
2018-09-14T05:37:54.048Z,42.33
2018-09-14T05:40:24.405Z,41.73
2018-09-14T05:42:54.984Z,37.57
2018-09-14T05:45:26.410Z,34.43
2018-09-14T05:47:57.607Z,37.63
2018-09-14T05:50:28.096Z,40.27
2018-09-14T05:52:58.743Z,44.53
2018-09-14T05:55:29.724Z,38.17
2018-09-14T05:58:01.070Z,40.50
2018-09-14T06:00:31.560Z,29.63
2018-09-14T06:03:01.859Z,40.07
2018-09-14T06:05:33.101Z,38.80
2018-09-14T06:08:04.235Z,39.57
2018-09-14T06:10:34.651Z,32.57
2018-09-14T06:13:04.987Z,42.60
2018-09-14T06:15:36.229Z,34.63
2018-09-14T06:18:08.042Z,31.03
2018-09-14T06:20:38.254Z,29.10
2018-09-14T06:23:08.606Z,27.67
2018-09-14T06:25:39.948Z,28.73
2018-09-14T06:28:10.754Z,42.03
2018-09-14T06:30:41.011Z,36.50
2018-09-14T06:33:11.464Z,40.27
2018-09-14T06:35:42.492Z,35.63
2018-09-14T06:38:13.786Z,37.47
2018-09-14T06:40:44.366Z,36.43
2018-09-14T06:43:15.010Z,37.50
2018-09-14T06:45:45.976Z,41.00
2018-09-14T06:48:16.510Z,35.77
2018-09-14T06:50:46.882Z,36.17
2018-09-14T06:53:17.664Z,36.93
2018-09-14T06:55:49.006Z,37.93
2018-09-14T06:58:19.550Z,39.77
2018-09-14T07:00:49.942Z,33.67
2018-09-14T07:03:21.290Z,40.00
2018-09-14T07:05:52.420Z,38.73
2018-09-14T07:08:22.904Z,42.87
2018-09-14T07:10:53.303Z,43.37
2018-09-14T07:13:24.549Z,44.43
2018-09-14T07:15:55.796Z,43.23
2018-09-14T07:18:26.433Z,37.90
2018-09-14T07:20:56.932Z,39.97
2018-09-14T07:23:28.139Z,39.43
2018-09-14T07:25:59.189Z,36.30
2018-09-14T07:28:29.552Z,33.70
2018-09-14T07:31:00.065Z,37.07
2018-09-14T07:33:31.348Z,31.73
2018-09-14T07:36:02.755Z,35.23
2018-09-14T07:38:33.093Z,37.57
2018-09-14T07:41:05.063Z,32.00
2018-09-14T07:43:36.198Z,31.37
2018-09-14T07:46:07.249Z,31.73
2018-09-14T07:48:37.560Z,32.67
2018-09-14T07:51:07.908Z,33.50
2018-09-14T07:53:38.988Z,34.37
2018-09-14T07:56:09.950Z,34.57
2018-09-14T07:58:40.405Z,37.17
2018-09-14T08:01:10.774Z,32.87
2018-09-14T08:03:41.897Z,31.03
2018-09-14T08:06:13.780Z,38.37
2018-09-14T08:08:44.665Z,35.93
2018-09-14T08:11:15.176Z,31.23
2018-09-14T08:13:46.746Z,35.33
2018-09-14T08:16:17.308Z,30.23
2018-09-14T08:18:48.440Z,29.17
2018-09-14T08:21:19.557Z,27.00
2018-09-14T08:23:51.832Z,24.67
2018-09-14T08:26:23.363Z,28.47
2018-09-14T08:28:53.942Z,27.00
2018-09-14T08:31:25.280Z,27.37
2018-09-14T08:33:58.052Z,27.27
2018-09-14T08:36:28.459Z,23.70
2018-09-14T08:38:58.806Z,26.07
2018-09-14T08:41:29.680Z,22.10
2018-09-14T08:44:01.110Z,20.43
2018-09-14T08:46:31.061Z,17.90
2018-09-14T08:49:01.693Z,19.80
2018-09-14T08:51:32.736Z,22.97
2018-09-14T08:54:04.016Z,21.10
2018-09-14T08:56:34.450Z,21.73
2018-09-14T08:59:04.968Z,23.63
2018-09-14T09:01:36.006Z,20.67
2018-09-14T09:04:07.136Z,22.30
2018-09-14T09:06:37.550Z,24.87
2018-09-14T09:09:10.732Z,21.33
2018-09-14T09:11:42.096Z,24.43
2018-09-14T09:14:13.580Z,20.77
2018-09-14T09:16:44.020Z,20.80
2018-09-14T09:19:14.477Z,21.70
2018-09-14T09:21:45.763Z,16.93
2018-09-14T09:24:16.390Z,19.10
2018-09-14T09:26:47.036Z,20.10
2018-09-14T09:29:18.081Z,21.10
2018-09-14T09:31:49.943Z,19.07
2018-09-14T09:34:21.129Z,22.23
2018-09-14T09:36:51.405Z,19.13
2018-09-14T09:39:22.851Z,20.07
2018-09-14T09:41:54.349Z,17.97
2018-09-14T09:44:24.698Z,23.27
2018-09-14T09:46:55.192Z,22.37
2018-09-14T09:49:26.417Z,21.87
2018-09-14T09:51:57.375Z,22.10
2018-09-14T09:54:27.792Z,20.17
2018-09-14T09:56:58.358Z,22.73
2018-09-14T09:59:29.320Z,19.40
2018-09-14T10:02:05.604Z,26.00
2018-09-14T10:05:45.287Z,16.50
2018-09-14T10:08:15.758Z,14.77
2018-09-14T10:10:46.372Z,15.53
2018-09-14T10:13:17.248Z,12.53
2018-09-14T10:15:48.380Z,18.47
2018-09-14T10:18:19.339Z,16.37
2018-09-14T10:20:49.911Z,14.23
2018-09-14T10:23:21.147Z,15.00
2018-09-14T10:25:52.224Z,15.28
2018-09-14T10:28:23.200Z,28.95
2018-09-14T10:30:54.260Z,12.47
2018-09-14T10:33:26.072Z,9.65
2018-09-14T10:35:58.123Z,9.88
2018-09-14T10:38:29.187Z,10.82
2018-09-14T10:41:00.061Z,10.53
2018-09-14T10:43:31.691Z,10.90
2018-09-14T10:46:03.460Z,10.72
2018-09-14T10:48:34.759Z,12.00
2018-09-14T10:51:06.025Z,12.93
2018-09-14T10:53:38.265Z,12.25
2018-09-14T10:56:10.309Z,10.82
2018-09-14T10:58:42.427Z,11.97
2018-09-14T11:01:15.468Z,11.68
2018-09-14T11:03:47.535Z,12.45
2018-09-14T11:06:18.806Z,10.20
2018-09-14T11:08:50.049Z,12.40
2018-09-14T11:11:21.677Z,8.70
2018-09-14T11:13:53.848Z,9.28
2018-09-14T11:16:25.091Z,10.00
2018-09-14T11:18:57.134Z,14.45
2018-09-14T11:21:29.387Z,11.88
2018-09-14T11:24:01.283Z,13.88
2018-09-14T11:26:35.467Z,10.72
2018-09-14T11:29:08.435Z,11.55
2018-09-14T11:31:40.102Z,10.28
2018-09-14T11:34:11.173Z,11.75
2018-09-14T11:36:42.192Z,14.00
2018-09-14T11:39:13.312Z,11.50
2018-09-14T11:41:45.203Z,10.60
2018-09-14T11:44:16.271Z,11.00
2018-09-14T11:46:47.340Z,12.13
2018-09-14T11:49:19.957Z,10.03
2018-09-14T11:51:51.861Z,10.68
2018-09-14T11:54:24.241Z,9.88
2018-09-14T11:56:55.942Z,9.38
2018-09-14T11:59:27.507Z,9.73
2018-09-14T12:01:59.148Z,14.85
2018-09-14T12:04:31.332Z,11.30
2018-09-14T12:07:02.334Z,9.33
2018-09-14T12:09:33.806Z,8.43
2018-09-14T12:12:05.440Z,9.68
2018-09-14T12:14:36.483Z,9.60
2018-09-14T12:17:07.592Z,8.75
2018-09-14T12:19:39.249Z,11.28
2018-09-14T12:22:10.833Z,14.58
2018-09-14T12:24:41.897Z,14.47
2018-09-14T12:27:13.387Z,15.75
2018-09-14T12:29:45.445Z,11.73
2018-09-14T12:32:16.497Z,13.40
2018-09-14T12:34:47.442Z,12.93
2018-09-14T12:37:19.151Z,13.68
2018-09-14T12:39:51.819Z,13.22
2018-09-14T12:42:23.244Z,9.78
2018-09-14T12:44:54.389Z,8.50
2018-09-14T12:47:26.405Z,10.00
2018-09-14T12:49:58.103Z,11.18
2018-09-14T12:52:29.346Z,11.18
2018-09-14T12:55:00.331Z,8.63
2018-09-14T12:57:31.955Z,9.45
2018-09-14T13:00:04.173Z,9.48
2018-09-14T13:02:36.098Z,8.80
2018-09-14T13:05:07.923Z,10.75
2018-09-14T13:07:39.869Z,10.90
2018-09-14T13:10:11.264Z,8.88
2018-09-14T13:12:43.603Z,11.63
2018-09-14T13:15:14.642Z,9.40
2018-09-14T13:17:46.363Z,10.60
2018-09-14T13:20:17.282Z,8.03
2018-09-14T13:22:48.350Z,10.48
2018-09-14T13:25:20.476Z,10.63
2018-09-14T13:27:52.347Z,8.50
2018-09-14T13:30:23.689Z,10.93
2018-09-14T13:32:54.947Z,8.60
2018-09-14T13:35:26.464Z,9.20
2018-09-14T13:37:57.980Z,10.43
2018-09-14T13:40:29.455Z,10.68
2018-09-14T13:43:00.386Z,9.63
2018-09-14T13:45:33.173Z,9.80
2018-09-14T13:48:04.722Z,10.53
2018-09-14T13:50:35.798Z,9.30
2018-09-14T13:53:06.845Z,9.05
2018-09-14T13:55:39.727Z,10.32
2018-09-14T13:58:11.183Z,10.08
2018-09-14T14:00:42.183Z,9.88
2018-09-14T14:03:12.997Z,8.35
2018-09-14T14:05:44.536Z,8.90
2018-09-14T14:08:16.351Z,9.20
2018-09-14T14:10:47.402Z,7.95
2018-09-14T14:13:19.264Z,11.43
2018-09-14T14:15:50.809Z,8.55
2018-09-14T14:18:22.491Z,7.72
2018-09-14T14:20:54.619Z,7.35
2018-09-14T14:23:26.325Z,8.45
2018-09-14T14:25:58.229Z,7.80
2018-09-14T14:28:29.231Z,6.47
2018-09-14T14:31:00.817Z,6.65
2018-09-14T14:33:32.440Z,8.28
2018-09-14T14:36:04.479Z,8.25
2018-09-14T14:38:35.543Z,7.95
2018-09-14T14:41:06.469Z,10.78
2018-09-14T14:43:38.249Z,8.90
2018-09-14T14:46:09.726Z,8.68
2018-09-14T14:48:40.702Z,8.53
2018-09-14T14:51:12.782Z,8.15
2018-09-14T14:53:44.743Z,9.30
2018-09-14T14:56:16.384Z,7.55
2018-09-14T14:58:47.649Z,8.10
2018-09-14T15:01:19.430Z,5.35
2018-09-14T15:03:51.160Z,8.33
2018-09-14T15:06:22.164Z,8.30
2018-09-14T15:08:53.311Z,9.15
2018-09-14T15:11:25.815Z,7.60
2018-09-14T15:13:57.501Z,9.30
2018-09-14T15:16:29.845Z,9.40
2018-09-14T15:19:00.709Z,9.40
2018-09-14T15:21:32.659Z,10.75
2018-09-14T15:24:04.501Z,8.83
2018-09-14T15:26:35.695Z,8.13
2018-09-14T15:29:06.857Z,7.90
2018-09-14T15:31:38.645Z,9.03
2018-09-14T15:34:09.889Z,9.43
2018-09-14T15:36:42.497Z,8.10
2018-09-14T15:39:13.993Z,7.75
2018-09-14T15:41:45.571Z,8.43
2018-09-14T15:44:16.428Z,8.20
2018-09-14T15:46:47.543Z,9.83
2018-09-14T15:49:19.162Z,7.75
2018-09-14T15:51:51.026Z,8.50
2018-09-14T15:54:21.986Z,7.00
2018-09-14T15:56:52.769Z,10.50
2018-09-14T15:59:24.486Z,8.93
2018-09-14T16:01:56.247Z,9.15
2018-09-14T16:04:27.905Z,8.03
2018-09-14T16:06:58.631Z,8.23
2018-09-14T16:09:30.247Z,9.10
2018-09-14T16:12:01.677Z,8.05
2018-09-14T16:14:32.472Z,9.20
2018-09-14T16:17:03.543Z,9.60
2018-09-14T16:19:35.194Z,7.75
2018-09-14T16:22:06.977Z,8.03
2018-09-14T16:24:37.778Z,8.18
2018-09-14T16:27:08.862Z,9.25
2018-09-14T16:29:40.574Z,8.08
2018-09-14T16:32:12.064Z,10.23
2018-09-14T16:34:42.983Z,7.65
2018-09-14T16:37:13.996Z,8.05
2018-09-14T16:39:46.014Z,10.55
2018-09-14T16:42:17.506Z,8.53
2018-09-14T16:44:48.366Z,11.08
2018-09-14T16:47:20.502Z,10.28
2018-09-14T16:49:52.269Z,9.40
2018-09-14T16:52:23.441Z,11.38
2018-09-14T16:54:54.548Z,10.28
2018-09-14T16:57:26.105Z,7.95
2018-09-14T16:59:57.828Z,8.55
2018-09-14T17:02:28.663Z,8.50
2018-09-14T17:04:59.751Z,7.42
2018-09-14T17:07:31.080Z,8.73
2018-09-14T17:10:02.000Z,14.03
2018-09-14T17:12:32.123Z,9.60
2018-09-14T17:15:02.534Z,10.57
2018-09-14T17:17:33.604Z,32.57
2018-09-14T17:20:04.805Z,24.83
2018-09-14T17:22:35.447Z,12.17
2018-09-14T17:25:06.099Z,22.13
2018-09-14T17:27:37.214Z,12.00
2018-09-14T17:30:08.303Z,12.33
2018-09-14T17:32:38.706Z,21.40
2018-09-14T17:35:09.373Z,13.00
2018-09-14T17:37:40.458Z,11.33
2018-09-14T17:40:11.170Z,10.97
2018-09-14T17:42:43.826Z,9.20
2018-09-14T17:45:14.325Z,9.73
2018-09-14T17:47:45.510Z,68.40
2018-09-14T17:50:15.085Z,14.23
2018-09-14T17:52:45.552Z,41.37
2018-09-14T17:55:17.196Z,13.23
2018-09-14T17:57:48.321Z,9.27
2018-09-14T18:00:18.709Z,9.30
2018-09-14T18:02:50.316Z,12.77
2018-09-14T18:05:21.367Z,11.97
2018-09-14T18:07:52.416Z,12.53
2018-09-14T18:10:22.829Z,15.63
2018-09-14T18:12:53.097Z,14.23
2018-09-14T18:15:24.419Z,19.43
2018-09-14T18:17:55.394Z,26.40
2018-09-14T18:20:25.907Z,22.43
2018-09-14T18:22:56.339Z,25.03
2018-09-14T18:25:27.427Z,30.43
2018-09-14T18:27:58.492Z,32.23
2018-09-14T18:30:29.210Z,50.87
2018-09-14T18:32:59.522Z,39.70
2018-09-14T18:35:30.663Z,29.73
2018-09-14T18:38:02.084Z,35.30
2018-09-14T18:40:32.656Z,28.40
2018-09-14T18:43:03.050Z,20.53
2018-09-14T18:45:34.083Z,77.43
2018-09-14T18:48:05.473Z,24.20
2018-09-14T18:50:36.139Z,27.03
2018-09-14T18:53:07.851Z,21.50
2018-09-14T18:55:39.553Z,171.53
2018-09-14T18:58:10.499Z,75.67
2018-09-14T19:00:40.960Z,75.00
2018-09-14T19:03:12.555Z,23.87
2018-09-14T19:05:43.680Z,28.13
2018-09-14T19:08:14.934Z,20.80
2018-09-14T19:10:45.417Z,23.40
2018-09-14T19:13:16.873Z,16.23
2018-09-14T19:15:48.212Z,33.97
2018-09-14T19:18:18.704Z,28.27
2018-09-14T19:20:49.136Z,24.67
2018-09-14T19:23:20.206Z,18.90
2018-09-14T19:25:51.327Z,17.67
2018-09-14T19:28:21.769Z,18.27
2018-09-14T19:30:52.369Z,18.03
2018-09-14T19:33:23.434Z,18.47
2018-09-14T19:35:54.761Z,17.60
2018-09-14T19:38:25.583Z,18.33
2018-09-14T19:40:56.369Z,18.47
2018-09-14T19:43:27.463Z,19.17
2018-09-14T19:45:58.780Z,18.10
2018-09-14T19:48:29.056Z,19.57
2018-09-14T19:50:59.380Z,18.70
2018-09-14T19:53:30.419Z,22.33
2018-09-14T19:56:01.378Z,25.17
2018-09-14T19:58:31.423Z,21.23
2018-09-14T20:01:02.545Z,19.23
2018-09-14T20:03:33.610Z,19.00
2018-09-14T20:06:04.789Z,18.80
2018-09-14T20:08:35.745Z,17.47
2018-09-14T20:11:06.945Z,19.17
2018-09-14T20:13:37.818Z,19.83
2018-09-14T20:16:08.813Z,24.00
2018-09-14T20:18:40.078Z,28.77
2018-09-14T20:21:11.415Z,24.37
2018-09-14T20:23:42.261Z,20.77
2018-09-14T20:26:13.180Z,21.80
2018-09-14T20:28:43.991Z,18.97
2018-09-14T20:31:14.995Z,22.03
2018-09-14T20:33:45.739Z,24.10
2018-09-14T20:36:16.473Z,27.10
2018-09-14T20:38:47.838Z,26.33
2018-09-14T20:41:18.845Z,27.17
2018-09-14T20:43:49.998Z,25.80
2018-09-14T20:46:21.338Z,23.13
2018-09-14T20:48:52.982Z,23.73
2018-09-14T20:51:24.878Z,28.37
2018-09-14T20:53:55.859Z,36.50
2018-09-14T20:56:26.896Z,29.87
2018-09-14T20:58:57.743Z,35.30
2018-09-14T21:01:28.526Z,43.03
2018-09-14T21:03:59.340Z,27.97
2018-09-14T21:06:30.666Z,27.77
2018-09-14T21:09:01.984Z,26.43
2018-09-14T21:11:32.698Z,26.07
2018-09-14T21:14:04.090Z,27.90
2018-09-14T21:16:35.515Z,25.80
2018-09-14T21:19:06.685Z,26.27
2018-09-14T21:21:37.976Z,33.07
2018-09-14T21:24:08.861Z,27.53
2018-09-14T21:26:39.819Z,24.40
2018-09-14T21:29:10.486Z,22.57
2018-09-14T21:31:41.601Z,23.80
2018-09-14T21:34:13.213Z,26.13
2018-09-14T21:36:44.823Z,38.27
2018-09-14T21:39:16.055Z,48.60
2018-09-14T21:41:47.226Z,24.07
2018-09-14T21:44:17.959Z,21.40
2018-09-14T21:46:48.685Z,26.83
2018-09-14T21:49:19.591Z,24.63
2018-09-14T21:51:51.213Z,25.17
2018-09-14T21:54:22.244Z,24.13
2018-09-14T21:56:53.325Z,23.20
2018-09-14T21:59:24.492Z,24.80
2018-09-14T22:01:55.617Z,22.83
2018-09-14T22:04:26.553Z,23.23
2018-09-14T22:06:57.469Z,29.60
2018-09-14T22:09:28.572Z,23.10
2018-09-14T22:11:59.508Z,23.20
2018-09-14T22:14:30.795Z,25.13
2018-09-14T22:17:01.694Z,23.93
2018-09-14T22:19:32.553Z,25.47
2018-09-14T22:22:03.718Z,23.83
2018-09-14T22:24:35.150Z,22.77
2018-09-14T22:27:06.473Z,24.70
2018-09-14T22:29:38.206Z,26.67
2018-09-14T22:32:09.546Z,24.23
2018-09-14T22:34:40.350Z,26.17
2018-09-14T22:37:11.234Z,25.83
2018-09-14T22:39:42.742Z,24.20
2018-09-14T22:42:14.302Z,26.00
2018-09-14T22:44:45.159Z,24.70
2018-09-14T22:47:16.036Z,25.00
2018-09-14T22:49:46.818Z,23.07
2018-09-14T22:52:17.838Z,27.20
2018-09-14T22:54:48.668Z,23.47
2018-09-14T22:57:19.714Z,22.37
2018-09-14T22:59:50.526Z,25.77
2018-09-14T23:02:21.486Z,26.90
2018-09-14T23:04:52.196Z,21.90
2018-09-14T23:07:23.072Z,24.97
2018-09-14T23:09:54.475Z,25.60
2018-09-14T23:12:25.323Z,22.43
2018-09-14T23:14:56.232Z,25.70
2018-09-14T23:17:27.118Z,24.97
2018-09-14T23:19:57.930Z,30.63
2018-09-14T23:22:28.821Z,27.20
2018-09-14T23:24:59.807Z,32.43
2018-09-14T23:27:30.561Z,28.00
2018-09-14T23:30:01.274Z,24.63
2018-09-14T23:32:32.257Z,25.73
2018-09-14T23:35:03.437Z,22.50
2018-09-14T23:37:34.449Z,24.73
2018-09-14T23:40:05.501Z,23.93
2018-09-14T23:42:36.426Z,25.60
2018-09-14T23:45:07.319Z,21.97
2018-09-14T23:47:38.315Z,24.13
2018-09-14T23:50:09.673Z,21.63
2018-09-14T23:52:40.679Z,25.03
2018-09-14T23:55:11.601Z,19.83
2018-09-14T23:57:42.622Z,21.20
